sensor_id;sensor_type;location;lat;lon;timestamp;temperature;humidity
33594;DHT22;19920;52.242;20.940;2022-10-12T00:00:54;6.90;99.90
33594;DHT22;19920;52.242;20.940;2022-10-12T00:03:20;6.90;99.90
33594;DHT22;19920;52.242;20.940;2022-10-12T00:05:47;6.90;99.90
33594;DHT22;19920;52.242;20.940;2022-10-12T00:08:23;6.80;99.90
33594;DHT22;19920;52.242;20.940;2022-10-12T00:10:49;6.90;99.90
33594;DHT22;19920;52.242;20.940;2022-10-12T00:13:15;6.90;99.90
33594;DHT22;19920;52.242;20.940;2022-10-12T00:15:41;6.90;99.90
33594;DHT22;19920;52.242;20.940;2022-10-12T00:18:07;6.80;99.90
33594;DHT22;19920;52.242;20.940;2022-10-12T00:20:33;6.80;99.90
33594;DHT22;19920;52.242;20.940;2022-10-12T00:22:59;6.80;99.90
33594;DHT22;19920;52.242;20.940;2022-10-12T00:25:24;6.70;99.90
33594;DHT22;19920;52.242;20.940;2022-10-12T00:27:50;6.60;99.90
33594;DHT22;19920;52.242;20.940;2022-10-12T00:30:16;6.60;99.90
33594;DHT22;19920;52.242;20.940;2022-10-12T00:32:42;6.60;99.90
33594;DHT22;19920;52.242;20.940;2022-10-12T00:35:07;6.60;99.90
33594;DHT22;19920;52.242;20.940;2022-10-12T00:37:33;6.60;99.90
33594;DHT22;19920;52.242;20.940;2022-10-12T00:39:59;6.60;99.90
33594;DHT22;19920;52.242;20.940;2022-10-12T00:42:24;6.60;99.90
33594;DHT22;19920;52.242;20.940;2022-10-12T00:44:51;6.60;99.90
33594;DHT22;19920;52.242;20.940;2022-10-12T00:47:29;6.50;99.90
33594;DHT22;19920;52.242;20.940;2022-10-12T00:50:03;6.50;99.90
33594;DHT22;19920;52.242;20.940;2022-10-12T00:53:27;6.50;99.90
33594;DHT22;19920;52.242;20.940;2022-10-12T00:55:31;6.50;99.90
33594;DHT22;19920;52.242;20.940;2022-10-12T00:57:59;6.50;99.90
33594;DHT22;19920;52.242;20.940;2022-10-12T01:00:25;6.40;99.90
33594;DHT22;19920;52.242;20.940;2022-10-12T01:02:52;6.40;99.90
33594;DHT22;19920;52.242;20.940;2022-10-12T01:05:19;6.40;99.90
33594;DHT22;19920;52.242;20.940;2022-10-12T01:07:45;6.40;99.90
33594;DHT22;19920;52.242;20.940;2022-10-12T01:10:11;6.40;99.90
33594;DHT22;19920;52.242;20.940;2022-10-12T01:12:39;6.40;99.90
33594;DHT22;19920;52.242;20.940;2022-10-12T01:15:06;6.40;99.90
33594;DHT22;19920;52.242;20.940;2022-10-12T01:33:52;6.40;99.90
33594;DHT22;19920;52.242;20.940;2022-10-12T01:36:32;6.30;99.90
33594;DHT22;19920;52.242;20.940;2022-10-12T01:41:45;6.20;99.90
33594;DHT22;19920;52.242;20.940;2022-10-12T01:44:19;6.20;99.90
33594;DHT22;19920;52.242;20.940;2022-10-12T01:46:45;6.20;99.90
33594;DHT22;19920;52.242;20.940;2022-10-12T01:49:14;6.20;99.90
33594;DHT22;19920;52.242;20.940;2022-10-12T01:55:01;6.30;99.90
33594;DHT22;19920;52.242;20.940;2022-10-12T02:00:34;6.20;99.90
33594;DHT22;19920;52.242;20.940;2022-10-12T02:03:09;6.20;99.90
33594;DHT22;19920;52.242;20.940;2022-10-12T02:06:00;6.10;99.90
33594;DHT22;19920;52.242;20.940;2022-10-12T02:11:17;6.20;99.90
33594;DHT22;19920;52.242;20.940;2022-10-12T02:16:40;6.20;99.90
33594;DHT22;19920;52.242;20.940;2022-10-12T02:19:10;6.20;99.90
33594;DHT22;19920;52.242;20.940;2022-10-12T02:21:37;6.10;99.90
33594;DHT22;19920;52.242;20.940;2022-10-12T02:24:07;6.10;99.90
33594;DHT22;19920;52.242;20.940;2022-10-12T02:26:36;6.10;99.90
33594;DHT22;19920;52.242;20.940;2022-10-12T02:29:05;6.10;99.90
33594;DHT22;19920;52.242;20.940;2022-10-12T02:34:15;6.10;99.90
33594;DHT22;19920;52.242;20.940;2022-10-12T02:37:08;6.10;99.90
33594;DHT22;19920;52.242;20.940;2022-10-12T02:42:11;6.10;99.90
33594;DHT22;19920;52.242;20.940;2022-10-12T02:44:40;6.20;99.90
33594;DHT22;19920;52.242;20.940;2022-10-12T02:47:07;6.10;99.90
33594;DHT22;19920;52.242;20.940;2022-10-12T02:49:34;6.20;99.90
33594;DHT22;19920;52.242;20.940;2022-10-12T02:52:02;6.20;99.90
33594;DHT22;19920;52.242;20.940;2022-10-12T02:54:28;6.20;99.90
33594;DHT22;19920;52.242;20.940;2022-10-12T02:56:55;6.20;99.90
33594;DHT22;19920;52.242;20.940;2022-10-12T02:59:20;6.20;99.90
33594;DHT22;19920;52.242;20.940;2022-10-12T03:01:46;6.10;99.90
33594;DHT22;19920;52.242;20.940;2022-10-12T03:04:12;6.10;99.90
33594;DHT22;19920;52.242;20.940;2022-10-12T03:06:37;6.10;99.90
33594;DHT22;19920;52.242;20.940;2022-10-12T03:09:03;6.00;99.90
33594;DHT22;19920;52.242;20.940;2022-10-12T03:11:30;6.10;99.90
33594;DHT22;19920;52.242;20.940;2022-10-12T03:13:56;6.10;99.90
33594;DHT22;19920;52.242;20.940;2022-10-12T03:16:23;6.10;99.90
33594;DHT22;19920;52.242;20.940;2022-10-12T03:18:49;6.10;99.90
33594;DHT22;19920;52.242;20.940;2022-10-12T03:21:15;6.00;99.90
33594;DHT22;19920;52.242;20.940;2022-10-12T03:23:40;6.00;99.90
33594;DHT22;19920;52.242;20.940;2022-10-12T03:26:06;6.00;99.90
33594;DHT22;19920;52.242;20.940;2022-10-12T03:28:32;6.00;99.90
33594;DHT22;19920;52.242;20.940;2022-10-12T03:30:59;5.90;99.90
33594;DHT22;19920;52.242;20.940;2022-10-12T03:33:25;5.90;99.90
33594;DHT22;19920;52.242;20.940;2022-10-12T03:35:51;5.90;99.90
33594;DHT22;19920;52.242;20.940;2022-10-12T03:38:17;5.80;99.90
33594;DHT22;19920;52.242;20.940;2022-10-12T03:40:43;5.90;99.90
33594;DHT22;19920;52.242;20.940;2022-10-12T03:43:09;5.90;99.90
33594;DHT22;19920;52.242;20.940;2022-10-12T03:45:35;5.80;99.90
33594;DHT22;19920;52.242;20.940;2022-10-12T03:48:02;5.80;99.90
33594;DHT22;19920;52.242;20.940;2022-10-12T03:50:28;6.00;99.90
33594;DHT22;19920;52.242;20.940;2022-10-12T03:52:53;6.00;99.90
33594;DHT22;19920;52.242;20.940;2022-10-12T03:55:19;6.00;99.90
33594;DHT22;19920;52.242;20.940;2022-10-12T03:57:45;6.00;99.90
33594;DHT22;19920;52.242;20.940;2022-10-12T04:00:11;5.90;99.90
33594;DHT22;19920;52.242;20.940;2022-10-12T04:02:38;5.90;99.90
33594;DHT22;19920;52.242;20.940;2022-10-12T04:05:04;5.90;99.90
33594;DHT22;19920;52.242;20.940;2022-10-12T04:07:30;5.80;99.90
33594;DHT22;19920;52.242;20.940;2022-10-12T04:09:55;5.90;99.90
33594;DHT22;19920;52.242;20.940;2022-10-12T04:12:21;5.90;99.90
33594;DHT22;19920;52.242;20.940;2022-10-12T04:14:46;5.90;99.90
33594;DHT22;19920;52.242;20.940;2022-10-12T04:17:14;5.90;99.90
33594;DHT22;19920;52.242;20.940;2022-10-12T04:19:41;5.90;99.90
33594;DHT22;19920;52.242;20.940;2022-10-12T04:22:06;5.90;99.90
33594;DHT22;19920;52.242;20.940;2022-10-12T04:24:32;5.80;99.90
33594;DHT22;19920;52.242;20.940;2022-10-12T04:26:58;5.80;99.90
33594;DHT22;19920;52.242;20.940;2022-10-12T04:29:23;5.80;99.90
33594;DHT22;19920;52.242;20.940;2022-10-12T04:31:49;5.80;99.90
33594;DHT22;19920;52.242;20.940;2022-10-12T04:34:15;5.80;99.90
33594;DHT22;19920;52.242;20.940;2022-10-12T04:36:41;5.80;99.90
33594;DHT22;19920;52.242;20.940;2022-10-12T04:39:06;5.70;99.90
33594;DHT22;19920;52.242;20.940;2022-10-12T04:41:32;5.70;99.90
33594;DHT22;19920;52.242;20.940;2022-10-12T04:43:58;5.70;99.90
33594;DHT22;19920;52.242;20.940;2022-10-12T04:46:24;5.70;99.90
33594;DHT22;19920;52.242;20.940;2022-10-12T04:48:49;5.70;99.90
33594;DHT22;19920;52.242;20.940;2022-10-12T04:51:15;5.80;99.90
33594;DHT22;19920;52.242;20.940;2022-10-12T04:53:41;5.70;99.90
33594;DHT22;19920;52.242;20.940;2022-10-12T04:56:07;5.70;99.90
33594;DHT22;19920;52.242;20.940;2022-10-12T04:58:32;5.80;99.90
33594;DHT22;19920;52.242;20.940;2022-10-12T05:00:58;5.80;99.90
33594;DHT22;19920;52.242;20.940;2022-10-12T05:03:24;5.80;99.90
33594;DHT22;19920;52.242;20.940;2022-10-12T05:05:50;5.80;99.90
33594;DHT22;19920;52.242;20.940;2022-10-12T05:08:16;5.80;99.90
33594;DHT22;19920;52.242;20.940;2022-10-12T05:10:42;5.90;99.90
33594;DHT22;19920;52.242;20.940;2022-10-12T05:13:07;5.90;99.90
33594;DHT22;19920;52.242;20.940;2022-10-12T05:15:33;5.90;99.90
33594;DHT22;19920;52.242;20.940;2022-10-12T05:17:59;5.80;99.90
33594;DHT22;19920;52.242;20.940;2022-10-12T05:20:25;5.90;99.90
33594;DHT22;19920;52.242;20.940;2022-10-12T05:22:50;5.90;99.90
33594;DHT22;19920;52.242;20.940;2022-10-12T05:25:16;6.00;99.90
33594;DHT22;19920;52.242;20.940;2022-10-12T05:27:43;5.90;99.90
33594;DHT22;19920;52.242;20.940;2022-10-12T05:30:10;6.00;99.90
33594;DHT22;19920;52.242;20.940;2022-10-12T05:32:35;6.00;99.90
33594;DHT22;19920;52.242;20.940;2022-10-12T05:35:01;6.00;99.90
33594;DHT22;19920;52.242;20.940;2022-10-12T05:37:27;6.10;99.90
33594;DHT22;19920;52.242;20.940;2022-10-12T05:39:53;6.10;99.90
33594;DHT22;19920;52.242;20.940;2022-10-12T05:42:18;6.20;99.90
33594;DHT22;19920;52.242;20.940;2022-10-12T05:44:44;6.20;99.90
33594;DHT22;19920;52.242;20.940;2022-10-12T05:47:10;6.30;99.90
33594;DHT22;19920;52.242;20.940;2022-10-12T05:49:35;6.30;99.90
33594;DHT22;19920;52.242;20.940;2022-10-12T05:52:01;6.40;99.90
33594;DHT22;19920;52.242;20.940;2022-10-12T05:54:27;6.40;99.90
33594;DHT22;19920;52.242;20.940;2022-10-12T05:56:52;6.50;99.90
33594;DHT22;19920;52.242;20.940;2022-10-12T05:59:18;6.60;99.90
33594;DHT22;19920;52.242;20.940;2022-10-12T06:01:44;6.70;99.90
33594;DHT22;19920;52.242;20.940;2022-10-12T06:04:10;6.70;99.90
33594;DHT22;19920;52.242;20.940;2022-10-12T06:06:37;6.80;99.90
33594;DHT22;19920;52.242;20.940;2022-10-12T06:09:03;6.80;99.90
33594;DHT22;19920;52.242;20.940;2022-10-12T06:11:29;6.90;99.90
33594;DHT22;19920;52.242;20.940;2022-10-12T06:13:54;7.00;99.90
33594;DHT22;19920;52.242;20.940;2022-10-12T06:16:20;7.10;99.90
33594;DHT22;19920;52.242;20.940;2022-10-12T06:18:47;7.10;99.90
33594;DHT22;19920;52.242;20.940;2022-10-12T06:21:13;7.10;99.90
33594;DHT22;19920;52.242;20.940;2022-10-12T06:23:39;7.20;99.90
33594;DHT22;19920;52.242;20.940;2022-10-12T06:26:04;7.30;99.90
33594;DHT22;19920;52.242;20.940;2022-10-12T06:28:30;7.30;99.90
33594;DHT22;19920;52.242;20.940;2022-10-12T06:30:58;7.40;99.90
33594;DHT22;19920;52.242;20.940;2022-10-12T06:33:25;7.50;99.90
33594;DHT22;19920;52.242;20.940;2022-10-12T06:35:52;7.50;99.90
33594;DHT22;19920;52.242;20.940;2022-10-12T06:38:18;7.60;99.90
33594;DHT22;19920;52.242;20.940;2022-10-12T06:40:44;7.70;99.90
33594;DHT22;19920;52.242;20.940;2022-10-12T06:43:10;7.80;99.90
33594;DHT22;19920;52.242;20.940;2022-10-12T06:45:36;7.80;99.90
33594;DHT22;19920;52.242;20.940;2022-10-12T06:48:03;7.90;99.90
33594;DHT22;19920;52.242;20.940;2022-10-12T06:50:29;8.00;99.90
33594;DHT22;19920;52.242;20.940;2022-10-12T06:52:54;8.10;99.90
33594;DHT22;19920;52.242;20.940;2022-10-12T06:55:20;8.30;99.90
33594;DHT22;19920;52.242;20.940;2022-10-12T06:57:46;8.30;99.90
33594;DHT22;19920;52.242;20.940;2022-10-12T07:00:12;8.40;99.90
33594;DHT22;19920;52.242;20.940;2022-10-12T07:02:38;8.40;99.90
33594;DHT22;19920;52.242;20.940;2022-10-12T07:05:05;8.60;99.90
33594;DHT22;19920;52.242;20.940;2022-10-12T07:07:33;8.70;99.90
33594;DHT22;19920;52.242;20.940;2022-10-12T07:09:59;8.70;99.90
33594;DHT22;19920;52.242;20.940;2022-10-12T07:12:25;8.80;99.90
33594;DHT22;19920;52.242;20.940;2022-10-12T07:14:50;8.90;99.90
33594;DHT22;19920;52.242;20.940;2022-10-12T07:17:16;9.00;99.90
33594;DHT22;19920;52.242;20.940;2022-10-12T07:19:42;9.10;99.90
33594;DHT22;19920;52.242;20.940;2022-10-12T07:22:08;9.10;99.90
33594;DHT22;19920;52.242;20.940;2022-10-12T07:24:33;9.20;99.90
33594;DHT22;19920;52.242;20.940;2022-10-12T07:27:05;9.40;99.90
33594;DHT22;19920;52.242;20.940;2022-10-12T07:29:35;9.40;99.90
33594;DHT22;19920;52.242;20.940;2022-10-12T07:32:02;9.40;99.90
33594;DHT22;19920;52.242;20.940;2022-10-12T07:34:28;9.60;99.90
33594;DHT22;19920;52.242;20.940;2022-10-12T07:36:55;9.70;99.90
33594;DHT22;19920;52.242;20.940;2022-10-12T07:39:21;9.70;99.90
33594;DHT22;19920;52.242;20.940;2022-10-12T07:41:51;9.80;99.90
33594;DHT22;19920;52.242;20.940;2022-10-12T07:44:17;9.90;99.90
33594;DHT22;19920;52.242;20.940;2022-10-12T07:46:44;10.00;99.90
33594;DHT22;19920;52.242;20.940;2022-10-12T07:49:14;10.10;99.90
33594;DHT22;19920;52.242;20.940;2022-10-12T07:51:40;10.10;99.90
33594;DHT22;19920;52.242;20.940;2022-10-12T07:54:06;10.20;99.90
33594;DHT22;19920;52.242;20.940;2022-10-12T07:56:32;10.20;99.90
33594;DHT22;19920;52.242;20.940;2022-10-12T07:58:58;10.20;99.90
33594;DHT22;19920;52.242;20.940;2022-10-12T08:01:27;10.30;99.90
33594;DHT22;19920;52.242;20.940;2022-10-12T08:03:54;10.40;99.90
33594;DHT22;19920;52.242;20.940;2022-10-12T08:06:23;10.40;99.90
33594;DHT22;19920;52.242;20.940;2022-10-12T08:08:49;10.50;99.90
33594;DHT22;19920;52.242;20.940;2022-10-12T08:11:16;10.40;99.90
33594;DHT22;19920;52.242;20.940;2022-10-12T08:13:43;10.40;99.90
33594;DHT22;19920;52.242;20.940;2022-10-12T08:16:11;10.30;99.90
33594;DHT22;19920;52.242;20.940;2022-10-12T08:18:37;10.30;99.90
33594;DHT22;19920;52.242;20.940;2022-10-12T08:21:06;10.40;99.90
33594;DHT22;19920;52.242;20.940;2022-10-12T08:23:33;10.50;99.90
33594;DHT22;19920;52.242;20.940;2022-10-12T08:25:59;10.70;99.90
33594;DHT22;19920;52.242;20.940;2022-10-12T08:28:25;10.70;99.90
33594;DHT22;19920;52.242;20.940;2022-10-12T08:30:51;10.80;99.90
33594;DHT22;19920;52.242;20.940;2022-10-12T08:33:17;10.90;99.90
33594;DHT22;19920;52.242;20.940;2022-10-12T08:35:44;11.10;99.90
33594;DHT22;19920;52.242;20.940;2022-10-12T08:38:11;11.10;99.90
33594;DHT22;19920;52.242;20.940;2022-10-12T08:46:37;11.40;99.90
33594;DHT22;19920;52.242;20.940;2022-10-12T08:49:17;11.50;99.90
33594;DHT22;19920;52.242;20.940;2022-10-12T08:51:56;11.60;99.90
33594;DHT22;19920;52.242;20.940;2022-10-12T08:54:26;11.70;99.90
33594;DHT22;19920;52.242;20.940;2022-10-12T08:56:54;11.80;99.90
33594;DHT22;19920;52.242;20.940;2022-10-12T08:59:20;11.80;99.90
33594;DHT22;19920;52.242;20.940;2022-10-12T09:04:58;11.90;99.90
33594;DHT22;19920;52.242;20.940;2022-10-12T09:07:29;12.00;99.90
33594;DHT22;19920;52.242;20.940;2022-10-12T09:15:29;11.90;99.90
33594;DHT22;19920;52.242;20.940;2022-10-12T09:17:57;12.00;99.90
33594;DHT22;19920;52.242;20.940;2022-10-12T09:20:59;12.00;99.90
33594;DHT22;19920;52.242;20.940;2022-10-12T09:23:31;12.10;99.90
33594;DHT22;19920;52.242;20.940;2022-10-12T09:26:19;12.20;99.90
33594;DHT22;19920;52.242;20.940;2022-10-12T09:28:50;12.30;99.90
33594;DHT22;19920;52.242;20.940;2022-10-12T09:31:35;12.50;99.90
33594;DHT22;19920;52.242;20.940;2022-10-12T09:34:05;12.60;99.90
33594;DHT22;19920;52.242;20.940;2022-10-12T09:36:35;12.60;99.90
33594;DHT22;19920;52.242;20.940;2022-10-12T09:39:19;12.60;99.90
33594;DHT22;19920;52.242;20.940;2022-10-12T09:41:47;12.80;99.90
33594;DHT22;19920;52.242;20.940;2022-10-12T09:50:02;12.60;99.90
33594;DHT22;19920;52.242;20.940;2022-10-12T09:55:05;12.70;99.90
33594;DHT22;19920;52.242;20.940;2022-10-12T09:57:38;12.90;99.90
33594;DHT22;19920;52.242;20.940;2022-10-12T10:00:31;13.00;99.90
33594;DHT22;19920;52.242;20.940;2022-10-12T10:02:58;13.10;99.90
33594;DHT22;19920;52.242;20.940;2022-10-12T10:05:28;13.10;99.90
33594;DHT22;19920;52.242;20.940;2022-10-12T10:08:21;13.00;99.90
33594;DHT22;19920;52.242;20.940;2022-10-12T10:10:57;13.00;99.90
33594;DHT22;19920;52.242;20.940;2022-10-12T10:13:31;13.10;99.90
33594;DHT22;19920;52.242;20.940;2022-10-12T10:16:05;13.30;99.90
33594;DHT22;19920;52.242;20.940;2022-10-12T10:21:10;13.50;99.90
33594;DHT22;19920;52.242;20.940;2022-10-12T10:23:42;13.70;99.90
33594;DHT22;19920;52.242;20.940;2022-10-12T10:26:14;13.90;99.90
33594;DHT22;19920;52.242;20.940;2022-10-12T10:28:42;14.00;99.90
33594;DHT22;19920;52.242;20.940;2022-10-12T10:36:46;14.10;99.90
33594;DHT22;19920;52.242;20.940;2022-10-12T10:39:19;14.10;99.90
33594;DHT22;19920;52.242;20.940;2022-10-12T10:41:45;14.20;99.90
33594;DHT22;19920;52.242;20.940;2022-10-12T10:44:32;14.30;99.90
33594;DHT22;19920;52.242;20.940;2022-10-12T10:47:02;14.40;99.90
33594;DHT22;19920;52.242;20.940;2022-10-12T10:52:04;14.30;99.90
33594;DHT22;19920;52.242;20.940;2022-10-12T10:54:33;14.30;99.90
33594;DHT22;19920;52.242;20.940;2022-10-12T10:57:14;14.40;99.90
33594;DHT22;19920;52.242;20.940;2022-10-12T10:59:50;14.40;99.90
33594;DHT22;19920;52.242;20.940;2022-10-12T11:02:24;14.60;99.90
33594;DHT22;19920;52.242;20.940;2022-10-12T11:05:08;14.60;99.90
33594;DHT22;19920;52.242;20.940;2022-10-12T11:07:50;14.70;99.90
33594;DHT22;19920;52.242;20.940;2022-10-12T11:10:22;14.60;99.90
33594;DHT22;19920;52.242;20.940;2022-10-12T11:12:54;14.50;99.90
33594;DHT22;19920;52.242;20.940;2022-10-12T11:15:23;14.60;99.90
33594;DHT22;19920;52.242;20.940;2022-10-12T11:17:56;14.70;99.90
33594;DHT22;19920;52.242;20.940;2022-10-12T11:20:46;14.70;99.90
33594;DHT22;19920;52.242;20.940;2022-10-12T11:23:26;14.70;99.90
33594;DHT22;19920;52.242;20.940;2022-10-12T11:28:37;14.90;99.90
33594;DHT22;19920;52.242;20.940;2022-10-12T11:31:04;15.10;99.90
33594;DHT22;19920;52.242;20.940;2022-10-12T11:33:37;15.50;99.90
33594;DHT22;19920;52.242;20.940;2022-10-12T11:36:17;15.70;99.90
33594;DHT22;19920;52.242;20.940;2022-10-12T11:38:49;15.60;99.90
33594;DHT22;19920;52.242;20.940;2022-10-12T11:41:33;15.50;99.90
33594;DHT22;19920;52.242;20.940;2022-10-12T11:44:11;15.40;99.90
33594;DHT22;19920;52.242;20.940;2022-10-12T11:46:46;15.40;99.90
33594;DHT22;19920;52.242;20.940;2022-10-12T11:49:26;15.70;99.90
33594;DHT22;19920;52.242;20.940;2022-10-12T11:51:55;15.90;99.90
33594;DHT22;19920;52.242;20.940;2022-10-12T11:54:30;16.10;99.90
33594;DHT22;19920;52.242;20.940;2022-10-12T11:57:02;16.00;99.90
33594;DHT22;19920;52.242;20.940;2022-10-12T11:59:39;15.80;99.90
33594;DHT22;19920;52.242;20.940;2022-10-12T12:02:28;15.60;99.90
33594;DHT22;19920;52.242;20.940;2022-10-12T12:04:55;15.50;99.90
33594;DHT22;19920;52.242;20.940;2022-10-12T12:18:30;14.90;99.90
33594;DHT22;19920;52.242;20.940;2022-10-12T12:21:05;14.90;99.90
33594;DHT22;19920;52.242;20.940;2022-10-12T12:23:48;14.80;99.90
33594;DHT22;19920;52.242;20.940;2022-10-12T12:26:17;15.00;99.90
33594;DHT22;19920;52.242;20.940;2022-10-12T12:28:46;15.10;99.90
33594;DHT22;19920;52.242;20.940;2022-10-12T12:31:16;15.10;99.90
33594;DHT22;19920;52.242;20.940;2022-10-12T12:34:13;15.30;99.90
33594;DHT22;19920;52.242;20.940;2022-10-12T12:36:42;15.50;99.90
33594;DHT22;19920;52.242;20.940;2022-10-12T12:39:30;15.30;99.90
33594;DHT22;19920;52.242;20.940;2022-10-12T12:42:02;15.30;99.90
33594;DHT22;19920;52.242;20.940;2022-10-12T13:10:49;15.20;99.90
33594;DHT22;19920;52.242;20.940;2022-10-12T13:18:55;15.50;99.90
33594;DHT22;19920;52.242;20.940;2022-10-12T13:21:24;15.70;99.90
33594;DHT22;19920;52.242;20.940;2022-10-12T13:24:06;16.10;99.90
33594;DHT22;19920;52.242;20.940;2022-10-12T13:26:36;16.50;99.90
33594;DHT22;19920;52.242;20.940;2022-10-12T13:29:09;16.70;99.90
33594;DHT22;19920;52.242;20.940;2022-10-12T13:31:43;16.70;99.90
33594;DHT22;19920;52.242;20.940;2022-10-12T13:34:16;16.80;99.90
33594;DHT22;19920;52.242;20.940;2022-10-12T13:39:20;17.50;99.90
33594;DHT22;19920;52.242;20.940;2022-10-12T13:41:48;17.30;99.90
33594;DHT22;19920;52.242;20.940;2022-10-12T13:44:29;16.90;99.90
33594;DHT22;19920;52.242;20.940;2022-10-12T13:46:56;16.30;99.90
33594;DHT22;19920;52.242;20.940;2022-10-12T13:49:31;16.00;99.90
33594;DHT22;19920;52.242;20.940;2022-10-12T13:52:01;15.70;99.90
33594;DHT22;19920;52.242;20.940;2022-10-12T13:54:34;15.50;99.90
33594;DHT22;19920;52.242;20.940;2022-10-12T13:59:40;15.20;99.90
33594;DHT22;19920;52.242;20.940;2022-10-12T14:02:27;15.10;99.90
33594;DHT22;19920;52.242;20.940;2022-10-12T14:04:55;15.10;99.90
33594;DHT22;19920;52.242;20.940;2022-10-12T14:07:28;15.00;99.90
33594;DHT22;19920;52.242;20.940;2022-10-12T14:09:57;15.00;99.90
33594;DHT22;19920;52.242;20.940;2022-10-12T14:12:24;14.80;99.90
33594;DHT22;19920;52.242;20.940;2022-10-12T14:14:52;14.70;99.90
33594;DHT22;19920;52.242;20.940;2022-10-12T14:17:19;14.70;99.90
33594;DHT22;19920;52.242;20.940;2022-10-12T14:19:47;14.70;99.90
33594;DHT22;19920;52.242;20.940;2022-10-12T14:22:44;14.70;99.90
33594;DHT22;19920;52.242;20.940;2022-10-12T14:25:24;14.60;99.90
33594;DHT22;19920;52.242;20.940;2022-10-12T14:27:58;14.50;99.90
33594;DHT22;19920;52.242;20.940;2022-10-12T14:30:37;14.50;99.90
33594;DHT22;19920;52.242;20.940;2022-10-12T14:35:46;14.40;99.90
33594;DHT22;19920;52.242;20.940;2022-10-12T14:46:31;14.30;99.90
33594;DHT22;19920;52.242;20.940;2022-10-12T14:48:57;14.30;99.90
33594;DHT22;19920;52.242;20.940;2022-10-12T14:51:23;14.30;99.90
33594;DHT22;19920;52.242;20.940;2022-10-12T14:54:04;14.30;99.90
33594;DHT22;19920;52.242;20.940;2022-10-12T14:56:29;14.20;99.90
33594;DHT22;19920;52.242;20.940;2022-10-12T14:58:55;14.20;99.90
33594;DHT22;19920;52.242;20.940;2022-10-12T15:01:21;14.20;99.90
33594;DHT22;19920;52.242;20.940;2022-10-12T15:03:48;14.20;99.90
33594;DHT22;19920;52.242;20.940;2022-10-12T15:06:15;14.20;99.90
33594;DHT22;19920;52.242;20.940;2022-10-12T15:08:41;14.20;99.90
33594;DHT22;19920;52.242;20.940;2022-10-12T15:11:10;14.20;99.90
33594;DHT22;19920;52.242;20.940;2022-10-12T15:13:36;14.20;99.90
33594;DHT22;19920;52.242;20.940;2022-10-12T15:16:02;14.10;99.90
33594;DHT22;19920;52.242;20.940;2022-10-12T15:18:29;14.10;99.90
33594;DHT22;19920;52.242;20.940;2022-10-12T15:20:54;14.10;99.90
33594;DHT22;19920;52.242;20.940;2022-10-12T15:23:22;14.00;99.90
33594;DHT22;19920;52.242;20.940;2022-10-12T15:25:50;13.90;99.90
33594;DHT22;19920;52.242;20.940;2022-10-12T15:28:17;13.90;99.90
33594;DHT22;19920;52.242;20.940;2022-10-12T15:30:43;13.80;99.90
33594;DHT22;19920;52.242;20.940;2022-10-12T15:33:10;13.80;99.90
33594;DHT22;19920;52.242;20.940;2022-10-12T15:35:36;13.80;99.90
33594;DHT22;19920;52.242;20.940;2022-10-12T15:38:02;13.80;99.90
33594;DHT22;19920;52.242;20.940;2022-10-12T15:40:29;13.70;99.90
33594;DHT22;19920;52.242;20.940;2022-10-12T15:42:55;13.70;99.90
33594;DHT22;19920;52.242;20.940;2022-10-12T15:45:33;13.70;99.90
33594;DHT22;19920;52.242;20.940;2022-10-12T15:47:59;13.70;99.90
33594;DHT22;19920;52.242;20.940;2022-10-12T15:50:45;13.60;99.90
33594;DHT22;19920;52.242;20.940;2022-10-12T15:53:19;13.60;99.90
33594;DHT22;19920;52.242;20.940;2022-10-12T15:55:46;13.60;99.90
33594;DHT22;19920;52.242;20.940;2022-10-12T15:58:12;13.60;99.90
33594;DHT22;19920;52.242;20.940;2022-10-12T16:00:37;13.60;99.90
33594;DHT22;19920;52.242;20.940;2022-10-12T16:03:03;13.60;99.90
33594;DHT22;19920;52.242;20.940;2022-10-12T16:05:35;13.50;99.90
33594;DHT22;19920;52.242;20.940;2022-10-12T16:08:02;13.50;99.90
33594;DHT22;19920;52.242;20.940;2022-10-12T16:10:32;13.40;99.90
33594;DHT22;19920;52.242;20.940;2022-10-12T16:12:59;13.40;99.90
33594;DHT22;19920;52.242;20.940;2022-10-12T16:15:27;13.40;99.90
33594;DHT22;19920;52.242;20.940;2022-10-12T16:17:57;13.30;99.90
33594;DHT22;19920;52.242;20.940;2022-10-12T16:20:24;13.30;99.90
33594;DHT22;19920;52.242;20.940;2022-10-12T16:22:51;13.20;99.90
33594;DHT22;19920;52.242;20.940;2022-10-12T16:25:19;13.10;99.90
33594;DHT22;19920;52.242;20.940;2022-10-12T16:27:49;13.10;99.90
33594;DHT22;19920;52.242;20.940;2022-10-12T16:30:15;13.10;99.90
33594;DHT22;19920;52.242;20.940;2022-10-12T16:32:41;13.10;99.90
33594;DHT22;19920;52.242;20.940;2022-10-12T16:35:07;13.00;99.90
33594;DHT22;19920;52.242;20.940;2022-10-12T16:37:34;13.00;99.90
33594;DHT22;19920;52.242;20.940;2022-10-12T16:40:01;13.00;99.90
33594;DHT22;19920;52.242;20.940;2022-10-12T16:42:27;13.00;99.90
33594;DHT22;19920;52.242;20.940;2022-10-12T16:44:52;13.00;99.90
33594;DHT22;19920;52.242;20.940;2022-10-12T16:47:18;13.00;99.90
33594;DHT22;19920;52.242;20.940;2022-10-12T16:49:44;13.00;99.90
33594;DHT22;19920;52.242;20.940;2022-10-12T16:52:10;12.90;99.90
33594;DHT22;19920;52.242;20.940;2022-10-12T16:54:36;12.90;99.90
33594;DHT22;19920;52.242;20.940;2022-10-12T16:57:02;12.80;99.90
33594;DHT22;19920;52.242;20.940;2022-10-12T16:59:27;12.90;99.90
33594;DHT22;19920;52.242;20.940;2022-10-12T17:01:53;12.90;99.90
33594;DHT22;19920;52.242;20.940;2022-10-12T17:04:19;12.90;99.90
33594;DHT22;19920;52.242;20.940;2022-10-12T17:06:45;12.90;99.90
33594;DHT22;19920;52.242;20.940;2022-10-12T17:09:11;12.80;99.90
33594;DHT22;19920;52.242;20.940;2022-10-12T17:11:38;12.80;99.90
33594;DHT22;19920;52.242;20.940;2022-10-12T17:14:07;12.80;99.90
33594;DHT22;19920;52.242;20.940;2022-10-12T17:16:33;12.90;99.90
33594;DHT22;19920;52.242;20.940;2022-10-12T17:19:23;12.90;99.90
33594;DHT22;19920;52.242;20.940;2022-10-12T17:21:49;12.80;99.90
33594;DHT22;19920;52.242;20.940;2022-10-12T17:24:19;12.80;99.90
33594;DHT22;19920;52.242;20.940;2022-10-12T17:26:46;12.80;99.90
33594;DHT22;19920;52.242;20.940;2022-10-12T17:29:14;12.80;99.90
33594;DHT22;19920;52.242;20.940;2022-10-12T17:31:41;12.80;99.90
33594;DHT22;19920;52.242;20.940;2022-10-12T17:34:10;12.80;99.90
33594;DHT22;19920;52.242;20.940;2022-10-12T17:36:36;12.80;99.90
33594;DHT22;19920;52.242;20.940;2022-10-12T17:39:02;12.70;99.90
33594;DHT22;19920;52.242;20.940;2022-10-12T17:41:28;12.80;99.90
33594;DHT22;19920;52.242;20.940;2022-10-12T17:43:54;12.70;99.90
33594;DHT22;19920;52.242;20.940;2022-10-12T17:46:20;12.70;99.90